sensor_id;sensor_type;location;lat;lon;timestamp;pressure;altitude;pressure_sealevel;temperature;humidity
78373;BME280;67656;52.074;4.758;2024-01-30T00:01:02;102710.00;;;5.40;100.00
78373;BME280;67656;52.074;4.758;2024-01-30T00:06:09;102710.94;;;5.43;100.00
78373;BME280;67656;52.074;4.758;2024-01-30T00:11:16;102702.38;;;5.50;100.00
78373;BME280;67656;52.074;4.758;2024-01-30T00:16:23;102712.25;;;5.62;100.00
78373;BME280;67656;52.074;4.758;2024-01-30T00:21:23;102703.44;;;5.59;100.00
78373;BME280;67656;52.074;4.758;2024-01-30T00:26:24;102703.50;;;5.62;100.00
78373;BME280;67656;52.074;4.758;2024-01-30T00:31:25;102699.28;;;5.68;100.00
78373;BME280;67656;52.074;4.758;2024-01-30T00:36:30;102706.47;;;5.77;100.00
78373;BME280;67656;52.074;4.758;2024-01-30T00:41:37;102699.72;;;5.89;100.00
78373;BME280;67656;52.074;4.758;2024-01-30T00:46:41;102678.09;;;5.99;100.00
78373;BME280;67656;52.074;4.758;2024-01-30T00:51:45;102685.91;;;5.96;100.00
78373;BME280;67656;52.074;4.758;2024-01-30T00:56:50;102694.69;;;5.98;100.00
78373;BME280;67656;52.074;4.758;2024-01-30T01:01:52;102696.31;;;5.93;100.00
78373;BME280;67656;52.074;4.758;2024-01-30T01:06:57;102709.31;;;5.88;100.00
78373;BME280;67656;52.074;4.758;2024-01-30T01:11:58;102700.53;;;5.86;100.00
78373;BME280;67656;52.074;4.758;2024-01-30T01:17:04;102689.31;;;5.92;100.00
78373;BME280;67656;52.074;4.758;2024-01-30T01:22:04;102690.22;;;5.94;100.00
78373;BME280;67656;52.074;4.758;2024-01-30T01:27:08;102682.22;;;5.88;100.00
78373;BME280;67656;52.074;4.758;2024-01-30T01:32:08;102675.09;;;5.80;100.00
78373;BME280;67656;52.074;4.758;2024-01-30T01:37:09;102674.06;;;5.72;100.00
78373;BME280;67656;52.074;4.758;2024-01-30T01:42:15;102669.59;;;5.68;100.00
78373;BME280;67656;52.074;4.758;2024-01-30T01:47:18;102657.19;;;5.61;100.00
78373;BME280;67656;52.074;4.758;2024-01-30T01:52:24;102663.44;;;5.67;100.00
78373;BME280;67656;52.074;4.758;2024-01-30T01:57:35;102660.06;;;5.72;100.00
78373;BME280;67656;52.074;4.758;2024-01-30T02:02:36;102686.44;;;5.79;100.00
78373;BME280;67656;52.074;4.758;2024-01-30T02:07:40;102682.94;;;5.79;100.00
78373;BME280;67656;52.074;4.758;2024-01-30T02:13:00;102660.97;;;5.72;100.00
78373;BME280;67656;52.074;4.758;2024-01-30T02:18:10;102654.00;;;5.74;100.00
78373;BME280;67656;52.074;4.758;2024-01-30T02:23:17;102637.25;;;5.67;100.00
78373;BME280;67656;52.074;4.758;2024-01-30T02:28:25;102629.53;;;5.72;100.00
78373;BME280;67656;52.074;4.758;2024-01-30T02:33:28;102640.78;;;5.68;100.00
78373;BME280;67656;52.074;4.758;2024-01-30T02:38:37;102643.47;;;5.71;100.00
78373;BME280;67656;52.074;4.758;2024-01-30T02:43:45;102639.84;;;5.66;100.00
78373;BME280;67656;52.074;4.758;2024-01-30T02:48:51;102646.09;;;5.73;100.00
78373;BME280;67656;52.074;4.758;2024-01-30T02:53:54;102632.16;;;5.74;100.00
78373;BME280;67656;52.074;4.758;2024-01-30T02:59:36;102629.56;;;5.75;100.00
78373;BME280;67656;52.074;4.758;2024-01-30T03:04:42;102619.16;;;5.78;100.00
78373;BME280;67656;52.074;4.758;2024-01-30T03:09:50;102607.81;;;5.79;100.00
78373;BME280;67656;52.074;4.758;2024-01-30T03:14:59;102611.59;;;5.94;100.00
78373;BME280;67656;52.074;4.758;2024-01-30T03:20:09;102603.75;;;5.94;100.00
78373;BME280;67656;52.074;4.758;2024-01-30T03:25:15;102610.88;;;6.01;100.00
78373;BME280;67656;52.074;4.758;2024-01-30T03:30:16;102600.28;;;5.95;100.00
78373;BME280;67656;52.074;4.758;2024-01-30T03:35:19;102607.16;;;5.90;100.00
78373;BME280;67656;52.074;4.758;2024-01-30T03:40:22;102605.50;;;5.95;100.00
78373;BME280;67656;52.074;4.758;2024-01-30T03:45:34;102602.19;;;6.02;100.00
78373;BME280;67656;52.074;4.758;2024-01-30T03:50:41;102602.34;;;6.11;100.00
78373;BME280;67656;52.074;4.758;2024-01-30T03:55:54;102610.50;;;6.25;100.00
78373;BME280;67656;52.074;4.758;2024-01-30T04:01:05;102598.38;;;6.32;100.00
78373;BME280;67656;52.074;4.758;2024-01-30T04:06:08;102599.38;;;6.40;100.00
78373;BME280;67656;52.074;4.758;2024-01-30T04:11:13;102601.28;;;6.48;100.00
78373;BME280;67656;52.074;4.758;2024-01-30T04:16:20;102588.22;;;6.52;100.00
78373;BME280;67656;52.074;4.758;2024-01-30T04:21:26;102573.31;;;6.50;100.00
78373;BME280;67656;52.074;4.758;2024-01-30T04:26:30;102584.78;;;6.56;100.00
78373;BME280;67656;52.074;4.758;2024-01-30T04:31:45;102577.09;;;6.66;100.00
78373;BME280;67656;52.074;4.758;2024-01-30T04:36:53;102574.59;;;6.73;100.00
78373;BME280;67656;52.074;4.758;2024-01-30T04:42:10;102559.78;;;6.79;100.00
78373;BME280;67656;52.074;4.758;2024-01-30T04:47:51;102568.63;;;6.84;100.00
78373;BME280;67656;52.074;4.758;2024-01-30T04:53:00;102558.25;;;6.93;100.00
78373;BME280;67656;52.074;4.758;2024-01-30T04:58:02;102546.94;;;6.97;100.00
78373;BME280;67656;52.074;4.758;2024-01-30T05:03:11;102552.25;;;7.02;100.00
78373;BME280;67656;52.074;4.758;2024-01-30T05:08:30;102552.22;;;6.99;100.00
78373;BME280;67656;52.074;4.758;2024-01-30T05:13:47;102558.47;;;7.09;100.00
78373;BME280;67656;52.074;4.758;2024-01-30T05:18:50;102548.84;;;7.07;100.00
78373;BME280;67656;52.074;4.758;2024-01-30T05:24:01;102546.25;;;7.11;100.00
78373;BME280;67656;52.074;4.758;2024-01-30T05:29:18;102555.03;;;7.13;100.00
78373;BME280;67656;52.074;4.758;2024-01-30T05:34:37;102555.06;;;7.16;100.00
78373;BME280;67656;52.074;4.758;2024-01-30T05:39:43;102554.22;;;7.18;100.00
78373;BME280;67656;52.074;4.758;2024-01-30T05:44:44;102551.69;;;7.26;100.00
78373;BME280;67656;52.074;4.758;2024-01-30T05:49:56;102553.41;;;7.21;100.00
78373;BME280;67656;52.074;4.758;2024-01-30T05:55:02;102556.09;;;7.26;100.00
78373;BME280;67656;52.074;4.758;2024-01-30T06:00:17;102544.72;;;7.28;100.00
78373;BME280;67656;52.074;4.758;2024-01-30T06:05:28;102549.88;;;7.20;100.00
78373;BME280;67656;52.074;4.758;2024-01-30T06:10:35;102563.97;;;7.24;100.00
78373;BME280;67656;52.074;4.758;2024-01-30T06:21:04;102567.56;;;7.32;100.00
78373;BME280;67656;52.074;4.758;2024-01-30T06:26:14;102567.59;;;7.35;100.00
78373;BME280;67656;52.074;4.758;2024-01-30T06:31:40;102565.78;;;7.31;100.00
78373;BME280;67656;52.074;4.758;2024-01-30T06:37:16;102565.84;;;7.37;100.00
78373;BME280;67656;52.074;4.758;2024-01-30T06:42:40;102565.09;;;7.43;100.00
78373;BME280;67656;52.074;4.758;2024-01-30T06:47:44;102561.56;;;7.44;100.00
78373;BME280;67656;52.074;4.758;2024-01-30T06:52:48;102564.22;;;7.46;100.00
78373;BME280;67656;52.074;4.758;2024-01-30T06:58:03;102567.75;;;7.48;100.00
78373;BME280;67656;52.074;4.758;2024-01-30T07:03:18;102558.13;;;7.48;100.00
78373;BME280;67656;52.074;4.758;2024-01-30T07:08:27;102576.66;;;7.59;100.00
78373;BME280;67656;52.074;4.758;2024-01-30T07:13:34;102577.56;;;7.61;100.00
78373;BME280;67656;52.074;4.758;2024-01-30T07:24:44;102589.28;;;7.91;100.00
78373;BME280;67656;52.074;4.758;2024-01-30T08:00:16;102598.03;;;8.78;100.00
78373;BME280;67656;52.074;4.758;2024-01-30T08:11:15;102602.63;;;9.09;100.00
78373;BME280;67656;52.074;4.758;2024-01-30T08:16:23;102610.59;;;9.21;100.00
78373;BME280;67656;52.074;4.758;2024-01-30T08:21:23;102609.75;;;9.27;100.00
78373;BME280;67656;52.074;4.758;2024-01-30T08:26:26;102619.44;;;9.26;100.00
78373;BME280;67656;52.074;4.758;2024-01-30T08:31:29;102616.88;;;9.37;100.00
78373;BME280;67656;52.074;4.758;2024-01-30T08:36:32;102619.53;;;9.46;100.00
78373;BME280;67656;52.074;4.758;2024-01-30T08:41:33;102625.72;;;9.55;100.00
78373;BME280;67656;52.074;4.758;2024-01-30T08:46:34;102618.78;;;9.72;100.00
78373;BME280;67656;52.074;4.758;2024-01-30T08:51:37;102619.69;;;9.85;100.00
78373;BME280;67656;52.074;4.758;2024-01-30T08:56:43;102611.84;;;10.02;100.00
78373;BME280;67656;52.074;4.758;2024-01-30T09:01:55;102613.63;;;10.19;100.00
78373;BME280;67656;52.074;4.758;2024-01-30T09:06:56;102603.97;;;10.25;100.00
78373;BME280;67656;52.074;4.758;2024-01-30T09:11:56;102615.41;;;10.20;100.00
78373;BME280;67656;52.074;4.758;2024-01-30T09:17:47;102606.66;;;10.36;100.00
78373;BME280;67656;52.074;4.758;2024-01-30T09:34:49;102640.06;;;10.36;100.00
78373;BME280;67656;52.074;4.758;2024-01-30T09:39:50;102644.50;;;10.38;100.00
78373;BME280;67656;52.074;4.758;2024-01-30T09:44:51;102647.97;;;10.34;100.00
78373;BME280;67656;52.074;4.758;2024-01-30T09:49:52;102682.25;;;10.19;100.00
78373;BME280;67656;52.074;4.758;2024-01-30T09:54:53;102675.22;;;10.16;100.00
78373;BME280;67656;52.074;4.758;2024-01-30T09:59:53;102659.38;;;10.11;100.00
78373;BME280;67656;52.074;4.758;2024-01-30T10:04:54;102692.78;;;10.15;100.00
78373;BME280;67656;52.074;4.758;2024-01-30T10:09:54;102674.16;;;9.74;100.00
78373;BME280;67656;52.074;4.758;2024-01-30T10:15:33;102683.81;;;9.70;100.00
78373;BME280;67656;52.074;4.758;2024-01-30T10:20:44;102682.94;;;9.76;100.00
78373;BME280;67656;52.074;4.758;2024-01-30T10:25:44;102688.06;;;9.46;100.00
78373;BME280;67656;52.074;4.758;2024-01-30T10:30:45;102693.31;;;9.43;100.00
78373;BME280;67656;52.074;4.758;2024-01-30T10:35:46;102696.84;;;9.44;100.00
78373;BME280;67656;52.074;4.758;2024-01-30T10:40:48;102697.69;;;9.40;100.00
78373;BME280;67656;52.074;4.758;2024-01-30T10:45:53;102696.69;;;9.25;100.00
78373;BME280;67656;52.074;4.758;2024-01-30T10:50:59;102699.31;;;9.19;100.00
78373;BME280;67656;52.074;4.758;2024-01-30T10:56:01;102683.44;;;9.11;100.00
78373;BME280;67656;52.074;4.758;2024-01-30T11:01:02;102713.31;;;9.13;100.00
78373;BME280;67656;52.074;4.758;2024-01-30T11:06:03;102703.53;;;9.03;100.00
78373;BME280;67656;52.074;4.758;2024-01-30T11:11:08;102711.34;;;8.87;100.00
78373;BME280;67656;52.074;4.758;2024-01-30T11:16:11;102699.03;;;8.89;100.00
78373;BME280;67656;52.074;4.758;2024-01-30T11:21:13;102711.28;;;8.84;100.00
78373;BME280;67656;52.074;4.758;2024-01-30T11:26:34;102712.84;;;8.64;100.00
78373;BME280;67656;52.074;4.758;2024-01-30T11:31:36;102725.97;;;8.62;100.00
78373;BME280;67656;52.074;4.758;2024-01-30T11:36:45;102730.25;;;8.49;100.00
78373;BME280;67656;52.074;4.758;2024-01-30T11:41:51;102726.69;;;8.47;100.00
78373;BME280;67656;52.074;4.758;2024-01-30T11:46:54;102720.28;;;8.25;100.00
78373;BME280;67656;52.074;4.758;2024-01-30T11:51:55;102730.00;;;8.30;100.00
78373;BME280;67656;52.074;4.758;2024-01-30T11:56:55;102722.31;;;8.48;100.00
78373;BME280;67656;52.074;4.758;2024-01-30T12:01:56;102724.06;;;8.47;100.00
78373;BME280;67656;52.074;4.758;2024-01-30T12:06:56;102730.25;;;8.51;100.00
78373;BME280;67656;52.074;4.758;2024-01-30T12:11:57;102736.53;;;8.64;100.00
78373;BME280;67656;52.074;4.758;2024-01-30T12:17:00;102732.09;;;8.59;100.00
78373;BME280;67656;52.074;4.758;2024-01-30T12:22:02;102736.59;;;8.68;100.00
78373;BME280;67656;52.074;4.758;2024-01-30T12:27:03;102749.69;;;8.62;100.00
78373;BME280;67656;52.074;4.758;2024-01-30T12:32:05;102761.97;;;8.62;100.00
78373;BME280;67656;52.074;4.758;2024-01-30T12:37:06;102763.78;;;8.69;100.00
78373;BME280;67656;52.074;4.758;2024-01-30T12:42:07;102758.34;;;8.53;100.00
78373;BME280;67656;52.074;4.758;2024-01-30T12:47:08;102777.38;;;8.34;100.00
78373;BME280;67656;52.074;4.758;2024-01-30T12:52:10;102794.53;;;8.04;100.00
78373;BME280;67656;52.074;4.758;2024-01-30T12:57:11;102796.25;;;8.02;100.00
78373;BME280;67656;52.074;4.758;2024-01-30T13:02:22;102798.91;;;8.05;100.00
78373;BME280;67656;52.074;4.758;2024-01-30T13:07:23;102797.03;;;7.96;100.00
78373;BME280;67656;52.074;4.758;2024-01-30T13:12:30;102806.31;;;7.71;100.00
78373;BME280;67656;52.074;4.758;2024-01-30T13:17:34;102828.19;;;7.69;100.00
78373;BME280;67656;52.074;4.758;2024-01-30T13:22:37;102816.72;;;7.64;100.00
78373;BME280;67656;52.074;4.758;2024-01-30T13:27:41;102832.31;;;7.53;100.00
78373;BME280;67656;52.074;4.758;2024-01-30T13:32:42;102842.84;;;7.55;100.00
78373;BME280;67656;52.074;4.758;2024-01-30T13:37:45;102858.53;;;7.49;100.00
78373;BME280;67656;52.074;4.758;2024-01-30T13:42:49;102853.22;;;7.46;100.00
78373;BME280;67656;52.074;4.758;2024-01-30T13:47:49;102875.16;;;7.49;100.00
78373;BME280;67656;52.074;4.758;2024-01-30T13:52:52;102879.41;;;7.43;100.00
78373;BME280;67656;52.074;4.758;2024-01-30T13:57:53;102889.22;;;7.53;100.00
78373;BME280;67656;52.074;4.758;2024-01-30T14:02:57;102897.78;;;7.41;100.00
78373;BME280;67656;52.074;4.758;2024-01-30T14:08:02;102901.13;;;7.32;100.00
78373;BME280;67656;52.074;4.758;2024-01-30T14:13:04;102909.00;;;7.32;100.00
78373;BME280;67656;52.074;4.758;2024-01-30T14:18:06;102919.34;;;7.23;100.00
78373;BME280;67656;52.074;4.758;2024-01-30T14:23:07;102932.59;;;7.29;100.00
78373;BME280;67656;52.074;4.758;2024-01-30T14:33:25;102929.88;;;7.26;100.00
78373;BME280;67656;52.074;4.758;2024-01-30T14:38:25;102934.34;;;7.29;100.00
78373;BME280;67656;52.074;4.758;2024-01-30T14:43:28;102940.16;;;7.14;100.00
78373;BME280;67656;52.074;4.758;2024-01-30T15:00:48;102964.75;;;7.17;100.00
78373;BME280;67656;52.074;4.758;2024-01-30T15:06:03;102969.25;;;7.23;100.00
78373;BME280;67656;52.074;4.758;2024-01-30T15:11:09;102980.50;;;7.17;100.00
78373;BME280;67656;52.074;4.758;2024-01-30T15:16:12;102984.84;;;7.15;100.00
78373;BME280;67656;52.074;4.758;2024-01-30T15:21:33;102988.22;;;7.10;100.00
78373;BME280;67656;52.074;4.758;2024-01-30T15:27:06;103000.50;;;7.11;100.00
78373;BME280;67656;52.074;4.758;2024-01-30T15:38:17;103024.13;;;7.11;100.00
78373;BME280;67656;52.074;4.758;2024-01-30T15:49:28;103060.19;;;7.19;100.00
78373;BME280;67656;52.074;4.758;2024-01-30T15:54:52;103066.19;;;7.14;100.00
78373;BME280;67656;52.074;4.758;2024-01-30T16:30:17;103125.81;;;6.80;100.00
78373;BME280;67656;52.074;4.758;2024-01-30T16:35:26;103128.13;;;6.67;100.00
78373;BME280;67656;52.074;4.758;2024-01-30T16:40:49;103143.22;;;6.76;100.00
78373;BME280;67656;52.074;4.758;2024-01-30T16:45:52;103152.78;;;6.74;100.00
78373;BME280;67656;52.074;4.758;2024-01-30T16:50:53;103151.50;;;6.58;100.00
78373;BME280;67656;52.074;4.758;2024-01-30T16:55:53;103154.44;;;6.70;100.00
78373;BME280;67656;52.074;4.758;2024-01-30T17:00:54;103166.41;;;6.59;100.00
78373;BME280;67656;52.074;4.758;2024-01-30T17:05:54;103174.31;;;6.60;100.00
78373;BME280;67656;52.074;4.758;2024-01-30T17:10:55;103181.22;;;6.57;100.00
78373;BME280;67656;52.074;4.758;2024-01-30T17:15:58;103187.41;;;6.59;100.00
78373;BME280;67656;52.074;4.758;2024-01-30T17:21:01;103191.53;;;6.51;100.00
78373;BME280;67656;52.074;4.758;2024-01-30T17:26:02;103197.63;;;6.50;100.00
78373;BME280;67656;52.074;4.758;2024-01-30T17:31:03;103221.28;;;6.51;100.00
78373;BME280;67656;52.074;4.758;2024-01-30T17:36:03;103232.44;;;6.44;100.00
78373;BME280;67656;52.074;4.758;2024-01-30T17:41:04;103239.56;;;6.48;100.00
78373;BME280;67656;52.074;4.758;2024-01-30T17:46:04;103253.41;;;6.42;100.00
78373;BME280;67656;52.074;4.758;2024-01-30T17:51:05;103258.56;;;6.39;100.00
78373;BME280;67656;52.074;4.758;2024-01-30T17:56:06;103268.41;;;6.47;100.00
78373;BME280;67656;52.074;4.758;2024-01-30T18:01:07;103275.94;;;6.36;100.00
78373;BME280;67656;52.074;4.758;2024-01-30T18:06:07;103289.88;;;6.33;100.00
78373;BME280;67656;52.074;4.758;2024-01-30T18:11:08;103283.69;;;6.31;100.00
78373;BME280;67656;52.074;4.758;2024-01-30T18:16:08;103299.31;;;6.28;100.00
78373;BME280;67656;52.074;4.758;2024-01-30T18:21:09;103306.19;;;6.23;100.00
78373;BME280;67656;52.074;4.758;2024-01-30T18:31:45;103325.41;;;6.23;100.00
78373;BME280;67656;52.074;4.758;2024-01-30T18:36:46;103320.97;;;6.21;100.00
78373;BME280;67656;52.074;4.758;2024-01-30T18:41:53;103332.44;;;6.24;100.00
78373;BME280;67656;52.074;4.758;2024-01-30T18:47:01;103341.28;;;6.28;100.00
78373;BME280;67656;52.074;4.758;2024-01-30T18:52:13;103333.25;;;6.22;100.00
78373;BME280;67656;52.074;4.758;2024-01-30T18:57:45;103338.28;;;6.15;100.00
78373;BME280;67656;52.074;4.758;2024-01-30T19:02:48;103335.56;;;6.12;100.00
78373;BME280;67656;52.074;4.758;2024-01-30T19:07:52;103339.91;;;6.10;100.00
78373;BME280;67656;52.074;4.758;2024-01-30T19:13:05;103359.34;;;6.17;100.00
78373;BME280;67656;52.074;4.758;2024-01-30T19:18:18;103363.50;;;6.10;100.00
78373;BME280;67656;52.074;4.758;2024-01-30T19:52:56;103410.34;;;5.99;100.00
78373;BME280;67656;52.074;4.758;2024-01-30T19:58:11;103411.97;;;5.97;100.00
78373;BME280;67656;52.074;4.758;2024-01-30T20:15:23;103412.88;;;5.98;100.00
78373;BME280;67656;52.074;4.758;2024-01-30T20:20:32;103405.53;;;5.88;100.00
78373;BME280;67656;52.074;4.758;2024-01-30T20:31:38;103431.44;;;5.78;100.00
78373;BME280;67656;52.074;4.758;2024-01-30T20:36:41;103417.31;;;5.73;100.00
78373;BME280;67656;52.074;4.758;2024-01-30T20:41:42;103421.38;;;5.65;100.00
78373;BME280;67656;52.074;4.758;2024-01-30T20:46:42;103428.22;;;5.60;100.00
78373;BME280;67656;52.074;4.758;2024-01-30T20:51:43;103441.31;;;5.60;100.00
78373;BME280;67656;52.074;4.758;2024-01-30T20:56:44;103442.88;;;5.54;100.00
78373;BME280;67656;52.074;4.758;2024-01-30T21:01:44;103449.78;;;5.52;100.00
78373;BME280;67656;52.074;4.758;2024-01-30T21:06:45;103467.50;;;5.60;100.00
78373;BME280;67656;52.074;4.758;2024-01-30T21:11:45;103453.22;;;5.51;100.00
78373;BME280;67656;52.074;4.758;2024-01-30T21:16:47;103461.47;;;5.38;100.00
78373;BME280;67656;52.074;4.758;2024-01-30T21:21:48;103471.63;;;5.29;100.00
78373;BME280;67656;52.074;4.758;2024-01-30T21:26:48;103482.94;;;5.28;100.00
78373;BME280;67656;52.074;4.758;2024-01-30T21:31:49;103489.75;;;5.22;100.00
78373;BME280;67656;52.074;4.758;2024-01-30T21:36:49;103489.84;;;5.26;100.00
78373;BME280;67656;52.074;4.758;2024-01-30T21:41:50;103515.31;;;5.30;100.00
78373;BME280;67656;52.074;4.758;2024-01-30T21:46:50;103512.41;;;5.22;100.00
78373;BME280;67656;52.074;4.758;2024-01-30T21:51:51;103512.19;;;5.16;100.00
78373;BME280;67656;52.074;4.758;2024-01-30T21:56:51;103520.09;;;5.17;100.00
78373;BME280;67656;52.074;4.758;2024-01-30T22:01:52;103512.25;;;5.17;100.00
78373;BME280;67656;52.074;4.758;2024-01-30T22:06:52;103513.84;;;5.14;100.00
78373;BME280;67656;52.074;4.758;2024-01-30T22:11:52;103511.94;;;5.10;100.00
78373;BME280;67656;52.074;4.758;2024-01-30T22:16:53;103516.59;;;4.94;100.00
78373;BME280;67656;52.074;4.758;2024-01-30T22:21:53;103522.59;;;4.91;100.00
78373;BME280;67656;52.074;4.758;2024-01-30T22:26:55;103507.75;;;4.90;100.00
78373;BME280;67656;52.074;4.758;2024-01-30T22:31:56;103526.06;;;4.90;100.00
78373;BME280;67656;52.074;4.758;2024-01-30T22:36:56;103525.34;;;4.95;100.00
78373;BME280;67656;52.074;4.758;2024-01-30T22:41:57;103517.72;;;5.01;100.00
78373;BME280;67656;52.074;4.758;2024-01-30T22:46:57;103523.78;;;5.00;100.00
78373;BME280;67656;52.074;4.758;2024-01-30T22:51:58;103530.59;;;4.95;100.00
78373;BME280;67656;52.074;4.758;2024-01-30T22:56:58;103524.25;;;4.89;100.00
78373;BME280;67656;52.074;4.758;2024-01-30T23:01:58;103542.47;;;4.86;100.00
78373;BME280;67656;52.074;4.758;2024-01-30T23:06:59;103532.81;;;4.85;100.00
78373;BME280;67656;52.074;4.758;2024-01-30T23:11:59;103537.47;;;4.70;100.00
78373;BME280;67656;52.074;4.758;2024-01-30T23:17:00;103530.66;;;4.52;100.00
78373;BME280;67656;52.074;4.758;2024-01-30T23:22:00;103543.53;;;4.48;100.00
78373;BME280;67656;52.074;4.758;2024-01-30T23:27:00;103547.31;;;4.33;100.00
78373;BME280;67656;52.074;4.758;2024-01-30T23:32:01;103556.25;;;4.38;100.00
78373;BME280;67656;52.074;4.758;2024-01-30T23:37:02;103567.44;;;4.36;100.00
78373;BME280;67656;52.074;4.758;2024-01-30T23:42:02;103568.50;;;4.39;100.00
78373;BME280;67656;52.074;4.758;2024-01-30T23:47:03;103569.75;;;4.49;100.00
78373;BME280;67656;52.074;4.758;2024-01-30T23:52:04;103578.94;;;4.60;100.00
78373;BME280;67656;52.074;4.758;2024-01-30T23:57:04;103581.88;;;4.68;100.00
